Date,TemperatureHighF,TemperatureAvgF,TemperatureLowF,DewpointHighF,DewpointAvgF,DewpointLowF,HumidityHigh,HumidityAvg,HumidityLow,PressureMaxIn,PressureMinIn,WindSpeedMaxMPH,WindSpeedAvgMPH,GustSpeedMaxMPH,PrecipitationSumIn
2014-1-1,10.8,7.9,3.2,6.3,3.9,-0.8,87,84,79,30.53,30.24,24,9,24,0.07
2014-1-2,8.3,3.2,-0.3,1.4,-1.7,-4.7,86,80,67,30.61,30.50,13,5,13,0.01
2014-1-3,37.4,21.7,0.5,29.0,15.1,-4.3,82,76,67,30.52,29.68,34,11,34,0.00
2014-1-4,36.0,21.5,8.5,31.1,15.7,2.9,86,78,70,30.32,29.71,27,13,36,0.00
2014-1-5,9.1,2.7,-8.9,2.9,-6.3,-17.1,78,66,50,30.69,30.32,44,16,44,0.00
2014-1-6,5.0,-3.7,-11.8,-5.6,-11.9,-18.0,75,67,55,30.67,30.44,27,8,27,0.00
2014-1-7,25.6,12.9,-1.7,14.5,5.1,-7.6,79,71,60,30.45,30.18,12,4,12,0.00
2014-1-8,21.6,17.7,14.9,13.1,10.8,8.4,87,74,68,30.50,30.36,16,6,17,0.00
2014-1-9,25.3,17.8,7.5,23.3,13.4,3.8,93,83,72,30.47,30.02,18,6,18,0.00
2014-1-10,34.2,30.2,24.4,33.6,29.3,22.7,98,96,92,30.02,29.61,14,4,14,0.00
2014-1-11,46.7,34.5,25.3,33.8,27.1,22.6,97,76,48,29.88,29.68,26,7,26,0.00
2014-1-12,52.6,43.4,36.2,37.5,31.8,28.1,78,64,45,29.77,29.48,21,7,22,0.01
2014-1-13,47.2,38.9,30.5,34.4,28.7,24.5,84,67,48,29.91,29.68,22,8,24,0.00
2014-1-14,46.8,33.3,19.2,36.5,20.6,10.7,76,60,35,30.29,29.69,45,16,46,0.00
2014-1-15,41.4,24.9,9.9,31.5,15.8,5.2,82,69,52,30.32,29.83,26,7,26,0.00
2014-1-16,43.6,33.7,16.9,32.1,20.4,4.9,81,59,47,30.13,29.79,50,19,50,0.00
2014-1-17,32.4,22.2,11.9,18.8,4.0,-3.7,62,47,24,30.27,29.91,36,9,36,0.00
2014-1-18,42.6,31.9,20.0,33.3,22.6,16.1,88,69,54,30.16,29.72,56,14,56,0.00
2014-1-19,66.0,42.5,22.9,29.4,23.1,-99.9,87,53,21,30.09,29.74,26,10,28,0.00
2014-1-20,48.5,31.5,4.9,31.0,20.8,-2.2,80,65,44,30.53,29.88,53,14,53,0.00
2014-1-21,25.2,9.7,-3.1,13.9,-4.7,-10.2,73,53,33,30.61,30.17,23,8,26,0.00
2014-1-22,28.9,18.2,-0.9,20.4,9.4,-9.1,80,68,47,30.72,30.17,34,13,34,0.00
2014-1-23,14.8,4.5,-4.5,-1.9,-6.6,-10.1,76,61,42,30.98,30.60,22,8,24,0.00
2014-1-24,50.2,32.5,12.3,38.6,17.5,-4.9,69,55,36,30.60,29.77,40,12,40,0.01
2014-1-25,45.3,35.5,28.8,35.3,25.1,13.2,84,66,43,30.12,29.59,32,10,35,0.00
2014-1-26,52.5,36.2,5.5,33.9,21.1,-8.0,71,55,30,30.37,29.58,52,18,52,0.00
2014-1-27,10.9,3.9,-1.5,-5.7,-8.6,-11.1,70,56,40,30.62,30.36,30,8,31,0.00
2014-1-28,19.4,8.1,-2.5,-1.0,-5.9,-11.3,69,54,35,30.62,30.36,22,4,22,0.00
2014-1-29,44.4,25.0,0.9,15.5,7.4,-5.0,78,50,28,30.37,29.68,29,8,29,0.00
2014-1-30,39.9,30.6,17.8,24.0,14.0,7.7,72,52,32,30.14,29.50,34,13,35,0.00
2014-1-31,25.5,19.3,14.1,17.7,7.7,3.3,91,61,45,30.27,30.07,18,5,18,0.02
2014-2-1,24.4,19.2,9.5,20.5,14.3,4.0,93,82,69,30.41,30.00,26,8,27,0.04
2014-2-2,27.5,13.0,0.4,12.8,5.7,-2.9,89,73,51,30.50,30.35,15,5,16,0.00
2014-2-3,31.9,19.9,5.5,17.9,9.7,1.5,83,66,42,30.37,30.28,15,5,15,0.00
2014-2-4,23.8,16.9,3.6,21.0,13.6,-0.2,90,87,64,30.51,30.30,33,10,33,0.24
2014-2-5,9.3,4.0,-3.1,1.7,-2.0,-8.8,84,76,63,30.79,30.51,35,13,35,0.06
2014-2-6,9.5,0.8,-8.5,-1.6,-6.8,-13.8,78,70,55,30.79,30.56,15,6,15,0.00
2014-2-7,16.2,10.1,2.5,6.8,1.4,-4.8,80,68,48,30.56,30.27,20,7,20,0.00
2014-2-8,27.1,19.5,11.8,18.5,13.8,6.8,88,79,60,30.32,30.11,17,7,17,0.00
2014-2-9,19.2,11.6,5.7,14.9,4.6,-1.2,84,73,64,30.57,30.32,18,7,18,0.00
2014-2-10,13.1,5.4,-2.6,2.1,-2.2,-7.5,85,71,57,30.66,30.56,11,3,11,0.00
2014-2-11,20.9,12.9,3.8,11.4,4.6,-2.9,76,69,61,30.61,30.21,21,8,21,0.00
2014-2-12,28.3,23.7,17.7,22.4,18.3,8.7,88,80,67,30.21,29.89,24,7,24,0.03
2014-2-13,52.7,37.3,25.7,32.5,26.6,19.2,87,67,41,29.92,29.73,24,8,24,0.00
2014-2-14,29.0,23.4,17.9,21.1,15.1,9.5,84,71,51,30.17,29.66,21,9,24,0.04
2014-2-15,56.7,32.0,19.4,34.2,22.2,11.5,82,69,28,30.15,29.85,38,10,38,0.01
2014-2-16,34.9,28.9,23.2,27.9,24.4,20.2,89,83,75,30.22,29.92,25,9,25,0.00
2014-2-17,53.9,39.1,28.8,35.3,25.6,19.0,94,64,27,30.00,29.85,36,8,36,0.05
2014-2-18,67.5,48.8,35.4,30.6,25.1,21.8,68,42,19,29.96,29.63,37,11,37,0.00
2014-2-19,51.2,39.3,28.3,33.5,24.2,-99.9,82,60,30,29.98,29.60,21,6,21,0.00
2014-2-20,42.0,34.9,25.7,35.4,25.4,-99.9,94,75,61,29.80,29.50,26,14,39,0.16
2014-2-21,50.5,33.5,22.8,32.0,23.0,15.4,87,67,38,29.93,29.80,21,7,36,0.00
2014-2-22,39.4,33.1,28.8,28.3,21.5,13.6,88,64,44,30.25,29.93,13,6,20,0.00
2014-2-23,31.4,25.5,20.9,15.1,9.9,4.7,65,52,40,30.45,30.25,13,6,20,0.00
2014-2-24,25.3,23.6,21.3,19.7,17.2,11.8,89,77,57,30.45,30.28,9,4,16,0.02
2014-2-25,21.5,14.6,7.5,18.8,7.6,-99.9,89,75,57,30.61,30.39,18,11,26,0.02
2014-2-26,35.6,18.4,0.8,16.8,7.3,-3.4,83,64,43,30.61,30.01,20,9,33,0.00
2014-2-27,24.5,14.6,5.3,12.3,-2.9,-13.6,71,48,23,30.29,29.97,13,8,21,0.00
2014-2-28,43.4,23.6,13.8,22.3,10.5,1.2,87,59,35,30.22,29.87,21,12,30,0.02
2014-3-1,19.3,8.7,1.1,14.1,1.9,-5.7,81,73,66,30.64,30.23,16,12,26,0.07
2014-3-2,3.0,-0.3,-4.3,-5.3,-9.4,-13.4,75,65,57,30.76,30.62,15,10,25,0.00
2014-3-3,18.6,8.7,-5.6,6.0,-2.8,-11.8,77,60,45,30.74,30.27,16,8,28,0.00
2014-3-4,35.9,23.8,10.7,21.4,12.4,4.0,76,62,46,30.27,30.04,13,6,20,0.00
2014-3-5,34.4,26.4,20.6,20.8,17.8,14.3,86,70,54,30.38,30.16,13,7,19,0.00
2014-3-6,39.5,30.7,22.9,31.5,26.6,19.3,94,85,71,30.36,29.88,18,9,30,0.00
2014-3-7,43.1,34.7,26.9,36.8,28.6,-99.9,92,80,65,30.24,29.83,21,11,33,0.00
2014-3-8,39.7,28.8,18.1,20.1,17.3,14.4,86,64,40,30.41,30.24,17,7,27,0.00
2014-3-9,72.1,48.4,26.1,31.6,24.1,-99.9,68,44,17,30.33,29.82,23,11,42,0.00
2014-3-10,75.0,58.4,44.8,37.3,33.1,29.1,55,40,24,29.82,29.58,12,5,21,0.00
2014-3-11,53.8,44.4,33.8,36.9,34.4,31.0,92,69,51,30.10,29.45,29,13,43,0.02
2014-3-12,53.9,38.5,26.2,35.3,26.0,-99.9,92,67,31,30.24,30.09,19,8,33,0.00
2014-3-13,68.3,49.7,31.6,31.5,24.2,20.2,73,42,18,30.09,29.68,15,8,29,0.00
2014-3-14,59.1,49.6,38.4,30.8,22.8,17.4,63,37,20,29.95,29.63,23,11,35,0.00
2014-3-15,65.6,43.7,30.2,32.8,25.2,19.6,88,51,24,30.26,29.82,26,11,41,0.01
2014-3-16,40.0,30.5,23.9,26.9,17.9,9.8,88,63,29,30.43,30.13,17,10,28,0.00
2014-3-17,60.7,41.0,23.8,29.7,22.0,15.5,76,50,26,30.13,29.47,18,11,36,0.00
2014-3-18,55.5,44.0,31.2,32.8,29.4,25.3,93,58,40,29.82,29.43,25,10,36,0.00
2014-3-19,52.3,37.7,31.0,31.7,28.5,24.8,93,72,36,30.14,29.82,22,13,33,0.00
2014-3-20,64.0,45.6,26.1,30.4,25.8,21.6,86,51,21,30.08,29.83,10,4,17,0.00
2014-3-21,58.2,44.6,32.0,35.7,29.8,22.9,82,58,32,30.27,29.78,30,14,42,0.00
2014-3-22,32.6,27.6,20.9,22.8,11.3,3.7,77,53,31,30.59,30.27,17,12,25,0.00
2014-3-23,39.8,28.5,13.8,14.4,9.4,6.4,74,46,29,30.62,30.34,9,4,17,0.00
2014-3-24,47.9,34.2,25.7,20.5,15.3,11.3,69,47,29,30.36,30.24,20,8,30,0.00
2014-3-25,38.8,29.8,21.5,22.1,9.9,1.3,86,48,21,30.46,30.21,21,9,31,0.00
2014-3-26,65.0,42.5,26.6,39.7,24.2,4.5,86,50,30,30.21,29.61,31,17,55,0.00
2014-3-27,52.9,41.1,33.6,50.9,38.6,29.7,96,91,83,29.88,29.30,24,14,38,0.11
2014-3-28,42.0,34.1,25.8,32.2,28.2,22.7,88,79,64,30.30,29.88,13,7,21,0.00
2014-3-29,57.8,40.2,23.4,31.4,27.7,21.7,94,66,33,30.38,30.09,13,6,22,0.00
2014-3-30,75.1,59.5,44.3,36.8,33.7,30.6,60,41,23,30.09,29.61,21,13,35,0.00
2014-3-31,73.2,53.0,27.9,43.9,31.7,14.3,60,45,27,29.95,29.37,30,18,44,0.00
2014-4-1,44.4,33.7,21.5,22.4,19.1,15.3,78,56,40,30.17,29.95,21,9,36,0.00
2014-4-2,44.6,39.5,33.7,39.6,30.2,20.1,93,70,52,30.12,29.82,15,8,25,0.00
2014-4-3,42.1,38.8,33.5,40.0,37.5,32.3,96,95,90,29.83,29.71,19,11,29,0.15
2014-4-4,44.9,35.9,31.4,36.3,31.3,27.6,96,84,57,30.20,29.84,23,14,37,0.15
2014-4-5,61.6,44.2,27.3,35.1,28.6,23.4,91,61,24,30.20,29.98,16,9,27,0.00
2014-4-6,62.8,53.9,46.3,40.9,36.7,32.3,66,52,40,29.99,29.83,17,9,30,0.00
2014-4-7,65.7,52.3,42.3,45.0,37.3,27.9,85,61,26,29.94,29.78,21,7,31,0.00
2014-4-8,59.1,47.7,38.2,36.9,29.8,19.9,82,54,22,30.11,29.94,19,11,28,0.00
2014-4-9,81.2,59.5,37.8,36.5,27.9,20.8,55,33,18,30.07,29.59,18,8,33,0.00
2014-4-10,67.7,59.5,49.8,38.1,29.3,17.2,59,34,16,29.99,29.55,22,8,37,0.00
2014-4-11,76.7,60.7,40.7,35.5,27.1,-99.9,53,30,18,30.06,29.80,12,6,20,0.00
2014-4-12,83.7,68.9,54.5,59.6,51.5,34.4,81,55,36,29.80,29.44,14,7,24,0.00
2014-4-13,65.6,45.0,30.7,54.7,41.3,29.4,95,88,64,29.96,29.51,29,18,46,1.67
2014-4-14,41.2,33.4,27.8,29.5,22.6,18.6,92,65,47,30.27,29.96,25,14,36,0.00
2014-4-15,54.0,39.6,24.1,31.9,24.8,18.4,80,57,38,30.26,29.87,16,8,30,0.00
2014-4-16,67.7,49.0,35.9,37.6,31.2,28.3,75,53,26,30.12,29.69,26,17,41,0.00
2014-4-17,54.0,41.1,31.5,31.9,27.5,24.1,79,61,32,30.37,30.12,20,8,26,0.00
2014-4-18,68.8,52.3,34.1,41.7,35.5,26.5,82,55,35,30.31,30.08,17,8,36,0.00
2014-4-19,80.1,66.0,52.4,49.1,45.1,41.3,68,49,31,30.09,29.92,18,12,32,0.00
2014-4-20,83.0,67.7,56.6,58.4,52.4,45.5,88,60,38,29.96,29.86,17,8,29,0.10
2014-4-21,74.6,65.1,55.7,58.0,43.2,24.2,92,53,17,30.10,29.88,22,11,35,0.01
2014-4-22,68.6,57.2,44.3,37.0,34.4,31.5,64,44,28,30.16,29.94,11,6,18,0.00
2014-4-23,57.5,53.8,48.7,48.9,42.6,36.1,83,67,45,29.95,29.60,23,13,35,0.31
2014-4-24,64.3,54.7,48.7,51.4,46.2,39.6,96,75,41,29.81,29.60,19,9,28,0.26
2014-4-25,79.1,62.1,41.2,45.6,40.8,35.7,84,50,23,29.85,29.71,18,6,30,0.00
2014-4-26,81.5,66.4,51.8,58.3,49.0,43.4,75,55,36,29.74,29.46,26,11,42,0.00
2014-4-27,68.7,63.4,59.4,59.4,56.5,51.7,95,79,60,29.46,29.21,20,12,36,0.56
2014-4-28,62.8,56.8,50.4,59.2,49.9,43.7,95,78,61,29.35,29.19,16,8,25,0.00
2014-4-29,51.5,44.5,37.9,48.0,41.4,35.2,94,89,78,29.90,29.35,22,13,33,0.20
2014-4-30,46.4,43.3,38.4,40.3,37.5,-99.9,90,82,67,29.99,29.90,23,14,35,0.03
2014-5-1,51.5,45.5,42.1,41.7,39.3,37.5,93,79,65,30.01,29.93,20,12,31,0.01
2014-5-2,73.0,54.5,38.2,46.8,38.4,33.6,85,59,27,30.00,29.76,18,8,28,0.00
2014-5-3,72.6,60.1,45.7,45.9,41.1,36.6,77,52,30,29.94,29.84,10,4,16,0.00
2014-5-4,68.7,59.2,51.1,46.1,42.4,37.7,66,54,41,29.94,29.76,17,9,28,0.00
2014-5-5,73.6,61.1,48.2,47.8,43.6,40.4,75,55,34,29.83,29.74,15,8,22,0.00
2014-5-6,80.5,66.6,53.5,60.3,50.3,-99.9,69,58,45,29.76,29.47,15,9,28,0.00
2014-5-7,94.9,76.8,62.6,65.6,57.1,29.8,90,59,10,29.56,29.40,26,9,45,1.74
2014-5-8,81.4,67.1,50.9,66.8,57.3,43.0,90,72,29,29.77,29.50,21,10,33,0.03
2014-5-9,69.0,56.0,43.0,46.9,41.6,38.8,86,61,34,29.88,29.77,17,8,30,0.00
2014-5-10,82.4,66.8,56.1,56.4,45.4,-99.9,74,49,21,29.82,29.63,15,7,28,0.00
2014-5-11,76.0,64.0,56.0,69.0,56.4,38.3,95,79,36,29.77,29.37,21,8,40,3.49
2014-5-12,58.5,51.4,46.8,57.4,49.3,43.0,96,92,85,30.05,29.62,20,12,31,0.15
2014-5-13,60.7,51.5,43.3,44.7,39.3,34.5,90,65,41,30.30,30.06,19,11,28,0.00
2014-5-14,66.8,52.7,41.9,42.9,38.0,30.6,85,61,29,30.30,30.10,19,5,27,0.00
2014-5-15,54.5,47.0,37.0,38.4,31.6,28.0,81,56,40,30.21,30.15,19,10,30,0.00
2014-5-16,54.9,45.6,34.3,39.0,30.7,-99.9,83,59,40,30.19,30.10,7,4,11,0.00
2014-5-17,65.9,53.2,39.0,43.9,36.2,27.6,93,58,25,30.18,30.09,9,4,17,0.00
2014-5-18,72.2,60.6,43.4,47.2,41.4,36.0,75,51,34,30.15,29.87,17,9,32,0.00
2014-5-19,82.5,70.9,61.2,63.5,58.3,46.8,83,65,48,29.89,29.57,20,12,40,0.00
2014-5-20,84.7,74.1,61.7,66.5,62.8,57.5,90,69,49,29.80,29.65,12,5,19,0.00
2014-5-21,82.0,71.4,61.4,60.2,51.1,44.9,69,50,31,30.04,29.79,15,8,22,0.00
2014-5-22,72.6,64.2,55.0,61.0,53.9,44.2,92,71,43,30.21,29.95,23,5,34,0.39
2014-5-23,78.3,66.7,54.1,57.7,53.5,48.9,97,67,38,30.18,30.04,12,5,20,0.00
2014-5-24,79.6,68.5,62.1,63.5,56.9,53.4,91,67,46,30.07,29.94,13,6,24,0.00
2014-5-25,81.1,70.1,64.8,70.4,65.9,62.7,98,87,64,29.97,29.82,15,6,25,0.15
2014-5-26,84.4,73.1,64.4,70.8,65.5,63.3,97,79,50,29.95,29.82,12,6,24,0.03
2014-5-27,86.0,74.8,65.4,67.4,63.7,59.3,91,70,42,29.91,29.83,12,4,22,0.00
2014-5-28,85.6,75.0,62.0,68.3,63.4,57.5,93,69,41,29.95,29.88,10,3,16,0.00
2014-5-29,84.5,75.4,62.5,68.7,64.6,60.0,93,70,52,29.99,29.88,9,4,15,0.00
2014-5-30,86.5,77.2,66.8,70.9,66.1,62.9,94,71,48,30.00,29.90,12,6,19,0.00
2014-5-31,86.4,77.4,67.6,69.2,65.4,61.8,92,68,47,30.00,29.82,14,7,23,0.00
2014-6-1,87.4,73.5,63.5,70.1,65.5,61.1,95,78,51,29.87,29.64,29,9,39,1.32
2014-6-2,81.4,71.5,61.5,67.2,61.3,56.6,96,73,44,29.93,29.72,12,6,17,0.00
2014-6-3,86.5,69.8,60.4,71.7,62.0,55.5,95,78,53,30.00,29.58,25,7,33,1.79
2014-6-4,78.4,69.1,61.0,67.7,63.4,59.9,97,83,60,29.83,29.63,16,5,23,0.04
2014-6-5,79.6,68.8,64.1,69.4,64.5,61.9,97,87,63,29.89,29.75,13,4,20,0.01
2014-6-6,85.6,74.2,63.3,71.2,65.2,60.4,98,76,46,29.92,29.79,8,4,14,0.01
2014-6-7,73.7,67.0,60.3,65.6,61.5,55.1,93,83,64,30.03,29.83,17,8,23,0.05
2014-6-8,68.8,62.3,54.4,61.4,57.4,51.8,92,84,73,30.06,29.92,9,4,13,0.00
2014-6-9,70.8,66.1,61.6,64.7,61.1,58.8,94,84,74,29.92,29.82,12,6,17,0.00
2014-6-10,79.6,68.6,57.8,63.5,58.3,54.3,90,71,47,29.87,29.78,10,5,16,0.00
2014-6-11,81.7,70.3,55.1,62.3,57.4,52.7,94,67,42,29.83,29.70,12,5,20,0.00
2014-6-12,73.3,66.8,58.4,62.5,50.9,41.6,78,58,37,30.04,29.78,17,10,24,0.00
2014-6-13,77.5,65.3,48.6,51.8,45.2,40.3,78,50,30,30.08,29.82,14,6,22,0.00
2014-6-14,84.0,70.3,61.8,70.2,59.5,51.6,75,69,60,29.86,29.48,23,13,43,0.00
2014-6-15,80.0,71.7,62.0,69.9,60.7,56.4,93,70,46,29.88,29.44,28,8,44,0.29
2014-6-16,88.0,75.6,63.6,76.6,68.9,59.4,97,81,62,29.89,29.54,25,11,42,0.01
2014-6-17,91.0,78.3,67.4,75.2,69.1,60.9,83,74,58,29.75,29.59,18,12,37,0.00
2014-6-18,92.0,83.3,75.4,75.2,73.3,70.9,88,73,56,29.72,29.63,17,11,30,0.00
2014-6-19,84.6,78.9,71.2,74.3,67.9,61.7,88,70,49,29.93,29.67,18,7,30,0.00
2014-6-20,91.6,78.5,62.3,71.8,66.3,59.6,96,69,38,29.97,29.77,21,7,34,3.65
2014-6-21,85.9,72.2,64.0,72.5,66.4,62.4,96,83,58,30.04,29.77,25,6,44,0.66
2014-6-22,78.8,74.2,68.1,71.1,67.7,64.8,93,81,66,29.83,29.72,15,7,23,0.05
2014-6-23,78.5,72.2,65.5,68.5,64.0,57.8,97,77,50,29.94,29.80,10,4,14,0.00
2014-6-24,81.4,72.0,62.4,66.2,61.3,56.5,89,71,45,29.98,29.92,6,3,9,0.00
2014-6-25,85.3,74.9,61.4,70.5,64.3,58.6,93,71,52,29.99,29.88,11,4,16,0.00
2014-6-26,84.4,72.8,67.2,75.5,68.4,62.0,94,86,61,29.91,29.72,27,5,40,1.97
2014-6-27,80.5,72.5,65.8,74.1,68.9,64.0,96,89,77,29.82,29.63,19,10,28,0.64
2014-6-28,80.0,72.6,64.8,69.9,67.0,63.1,96,83,68,29.81,29.61,12,7,19,0.10
2014-6-29,85.4,75.2,65.4,75.4,70.2,63.6,98,85,67,29.86,29.68,10,5,17,0.08
2014-6-30,82.3,74.4,66.4,77.1,70.6,60.5,97,88,72,29.73,29.55,12,6,17,0.00
2014-7-1,78.5,68.8,60.3,62.4,57.8,53.4,83,69,51,29.98,29.73,20,11,29,0.00
2014-7-2,70.3,61.7,55.7,56.2,53.3,50.6,88,75,53,30.16,29.98,17,7,24,0.00
2014-7-3,78.2,66.9,52.3,60.2,55.6,49.6,92,69,45,30.23,30.13,8,4,9,0.00
2014-7-4,82.5,71.8,59.8,67.0,61.5,56.3,89,71,54,30.22,30.05,15,8,23,0.00
2014-7-5,85.8,74.8,66.1,77.5,70.4,62.5,98,87,73,30.07,29.83,12,7,21,0.34
2014-7-6,93.1,80.4,68.4,82.1,74.4,68.1,100,83,61,29.83,29.72,14,4,18,0.00
2014-7-7,88.1,76.7,67.8,74.4,69.4,65.9,97,79,50,29.80,29.69,10,4,15,0.19
2014-7-8,80.0,72.2,62.9,67.5,62.0,58.1,89,72,50,29.96,29.79,16,8,21,0.00
2014-7-9,82.0,71.0,60.6,67.1,62.2,57.7,93,75,47,30.04,29.94,6,3,9,0.01
2014-7-10,84.5,74.5,63.4,70.9,66.6,61.2,94,78,59,29.99,29.90,15,8,24,0.00
2014-7-11,84.5,75.6,69.1,77.3,71.0,66.0,94,86,74,29.97,29.89,11,6,17,0.00
2014-7-12,87.8,77.3,70.6,77.0,73.0,68.0,98,87,65,29.97,29.87,12,6,18,0.00
2014-7-13,86.5,75.9,65.4,74.3,68.8,65.0,100,80,53,30.01,29.91,8,4,13,0.00
2014-7-14,74.8,68.5,57.0,68.5,57.3,49.1,93,69,49,30.12,29.90,19,9,26,0.02
2014-7-15,71.7,62.8,51.5,56.6,52.6,48.9,91,70,48,30.17,30.03,11,6,16,0.00
2014-7-16,74.4,65.7,53.3,60.8,53.9,48.4,96,68,45,30.08,29.99,6,2,10,0.00
2014-7-17,77.9,67.2,53.9,62.0,55.8,50.0,95,69,41,30.06,29.99,9,4,15,0.00
2014-7-18,77.3,68.2,58.4,64.5,61.2,56.6,95,79,63,30.04,29.93,12,6,22,0.00
2014-7-19,81.1,71.4,59.4,69.2,63.7,57.3,93,77,64,29.98,29.86,14,7,21,0.00
2014-7-20,88.3,76.6,64.5,75.0,69.1,62.1,92,78,63,29.87,29.74,16,10,26,0.00
2014-7-21,94.3,83.2,71.6,80.8,75.0,69.5,94,78,59,29.80,29.73,14,8,20,0.00
2014-7-22,92.1,84.0,74.3,78.8,72.9,67.6,84,70,54,30.09,29.79,13,8,21,0.00
2014-7-23,83.9,74.7,63.2,68.0,62.5,57.9,88,67,44,30.20,30.06,8,4,13,0.00
2014-7-24,82.6,73.1,64.1,68.1,63.6,60.3,89,73,58,30.14,29.79,17,9,24,0.00
2014-7-25,92.5,80.8,71.0,81.3,72.7,62.7,93,77,58,29.90,29.65,12,6,19,0.07
2014-7-26,86.8,79.8,73.5,79.3,75.1,71.8,95,86,74,29.85,29.70,12,4,18,0.00
2014-7-27,80.5,73.8,65.8,73.5,63.3,58.7,98,71,50,30.14,29.85,18,9,30,0.00
2014-7-28,77.0,67.3,57.3,62.4,57.9,54.9,93,73,51,30.24,30.14,10,6,14,0.00
2014-7-29,77.9,67.6,56.9,64.4,58.4,54.7,96,74,49,30.18,30.07,9,4,13,0.00
2014-7-30,79.7,68.6,56.7,62.1,56.9,52.5,93,69,41,30.13,30.05,8,3,12,0.00
2014-7-31,84.3,71.5,57.1,64.9,59.7,54.2,93,69,44,30.08,29.94,11,4,16,0.19
2014-8-1,82.6,72.3,63.2,67.8,63.9,61.7,96,76,54,30.07,29.98,11,4,17,0.01
2014-8-2,84.9,74.2,61.6,72.4,66.5,60.0,96,78,53,30.11,30.00,8,4,12,0.00
2014-8-3,86.2,75.3,63.8,73.0,67.6,61.0,94,78,57,30.10,29.94,20,7,28,0.28
2014-8-4,82.8,75.5,68.3,74.3,69.5,65.3,91,82,67,30.01,29.93,8,3,12,0.00
2014-8-5,85.6,78.0,69.9,74.3,71.0,68.1,96,80,60,30.02,29.91,10,5,14,0.04
2014-8-6,77.3,72.1,67.5,73.4,69.3,66.4,98,91,85,29.94,29.84,13,7,21,0.35
2014-8-7,77.8,71.8,68.6,72.9,69.5,67.2,98,93,80,29.92,29.85,8,3,12,0.02
2014-8-8,79.5,72.4,67.9,71.7,68.6,66.7,97,88,72,29.97,29.91,8,5,13,0.00
2014-8-9,82.2,73.3,67.8,73.4,69.3,66.7,98,88,71,30.00,29.90,12,5,18,0.06
2014-8-10,79.0,72.3,69.2,73.3,69.5,67.4,99,91,79,30.02,29.94,7,2,10,0.23
2014-8-11,76.8,70.1,62.6,68.1,61.7,56.2,97,77,51,30.11,30.00,17,8,25,0.00
2014-8-12,77.3,66.4,55.0,60.4,56.1,53.3,95,72,46,30.14,30.04,13,5,19,0.00
2014-8-13,81.0,69.3,57.0,63.2,58.3,53.4,91,70,45,30.13,30.01,7,3,12,0.00
2014-8-14,82.0,71.9,60.8,68.0,63.2,58.3,93,75,55,30.06,29.91,11,6,17,0.00
2014-8-15,72.5,70.3,67.9,69.1,66.5,62.9,97,88,77,29.92,29.80,11,7,18,0.01
2014-8-16,83.9,74.6,68.9,73.7,69.4,67.7,98,85,64,29.88,29.78,7,3,11,0.01
2014-8-17,85.6,75.6,66.3,74.8,70.2,65.5,98,84,65,29.94,29.81,11,4,18,0.04
2014-8-18,87.0,75.9,63.1,71.6,67.0,61.3,96,76,52,29.94,29.71,14,4,19,0.04
2014-8-19,88.3,77.9,67.0,70.5,67.3,60.9,96,72,43,29.78,29.70,7,3,10,0.00
2014-8-20,89.7,79.1,71.1,79.0,72.7,69.1,95,81,65,29.78,29.67,17,7,25,0.00
2014-8-21,88.6,81.2,72.0,76.1,72.3,66.6,90,75,60,29.81,29.68,13,6,22,0.25
2014-8-22,90.9,79.7,72.1,79.8,74.9,68.8,98,86,64,29.86,29.77,13,3,18,0.00
2014-8-23,90.6,78.7,69.4,77.9,73.0,68.2,97,84,61,29.92,29.69,14,8,20,1.97
2014-8-24,87.9,79.7,69.9,73.8,68.1,63.0,84,68,55,29.82,29.71,11,6,16,0.00
2014-8-25,80.0,72.1,67.0,67.9,63.6,57.1,94,75,55,30.02,29.81,17,7,23,0.00
2014-8-26,79.9,70.7,63.0,71.1,66.0,59.3,97,86,72,30.13,29.96,14,6,19,1.33
2014-8-27,75.5,70.3,67.3,71.5,68.2,65.6,97,93,85,30.12,29.98,12,4,17,1.36
2014-8-28,81.1,74.2,69.6,74.3,71.3,69.0,98,91,76,30.00,29.76,12,6,19,2.06
2014-8-29,77.8,71.5,67.6,72.2,68.7,65.6,96,91,78,29.80,29.70,10,4,15,0.08
2014-8-30,81.4,70.6,63.0,70.8,65.5,61.8,98,85,62,29.92,29.77,8,4,11,0.00
2014-8-31,84.8,72.7,67.5,76.7,68.4,65.0,96,87,75,29.80,29.49,16,7,20,0.34
2014-9-1,78.1,69.8,63.8,66.7,64.6,61.2,96,84,63,29.92,29.63,11,5,25,0.00
2014-9-2,78.9,68.4,56.2,64.8,60.1,55.0,97,76,52,29.98,29.86,15,3,20,0.00
2014-9-3,85.4,75.0,65.6,75.8,69.5,60.0,97,84,64,29.88,29.65,17,8,29,0.00
2014-9-4,90.9,80.0,71.6,76.5,71.5,60.9,90,76,56,29.91,29.64,13,8,20,0.00
2014-9-5,71.4,62.1,55.1,60.3,57.2,53.5,95,84,63,30.25,29.92,16,8,23,0.11
2014-9-6,72.7,60.7,50.4,57.2,52.1,47.6,97,76,42,30.31,30.20,5,3,9,0.00
2014-9-7,76.0,63.0,50.3,59.8,54.4,48.3,96,75,49,30.22,29.99,9,5,16,0.00
2014-9-8,86.4,71.8,58.3,72.3,63.3,54.4,88,76,57,30.00,29.72,14,8,24,0.00
2014-9-9,77.3,71.0,65.6,73.2,68.6,64.4,97,92,84,29.76,29.52,14,6,21,1.30
2014-9-10,67.9,61.2,54.2,67.3,59.2,51.0,98,93,86,30.08,29.56,17,10,23,0.00
2014-9-11,54.7,52.8,50.8,52.0,49.7,47.6,93,89,85,30.35,30.08,10,6,15,0.03
2014-9-12,54.4,48.3,42.8,49.2,45.1,41.4,96,89,74,30.48,30.34,10,5,15,0.59
2014-9-13,61.9,51.2,37.8,47.4,43.2,36.8,98,76,49,30.44,30.22,13,6,22,0.00
2014-9-14,71.4,60.6,49.2,56.8,51.5,46.8,92,73,51,30.23,30.04,10,4,15,0.00
2014-9-15,63.6,58.3,47.7,59.4,52.5,44.8,95,82,58,30.26,29.99,15,6,21,0.16
2014-9-16,68.8,56.4,41.0,54.7,48.6,40.2,98,77,50,30.27,29.99,9,4,14,0.00
2014-9-17,78.9,67.1,55.3,66.8,60.2,53.4,94,79,61,29.99,29.85,6,3,12,0.00
2014-9-18,76.7,66.1,58.4,63.2,60.1,57.4,98,82,55,30.00,29.91,11,6,16,0.00
2014-9-19,87.7,72.8,60.6,71.7,65.8,58.8,96,80,52,29.95,29.73,14,9,23,0.00
2014-9-20,83.7,70.9,65.9,70.6,61.1,54.2,94,68,43,30.00,29.74,14,6,21,0.25
2014-9-21,71.3,61.9,51.8,54.2,51.2,48.1,90,69,48,30.24,30.00,16,7,25,0.00
2014-9-22,73.6,60.8,46.8,55.8,51.1,45.4,97,73,44,30.30,30.14,7,3,12,0.00
2014-9-23,70.2,62.1,58.6,60.0,55.7,51.1,93,80,58,30.16,30.05,17,8,26,0.12
2014-9-24,70.8,64.2,59.8,64.0,59.2,55.2,93,84,76,30.13,30.04,10,7,18,0.00
2014-9-25,82.0,68.1,56.0,67.3,60.8,54.6,96,79,53,30.16,30.04,7,3,11,0.00
2014-9-26,84.1,70.6,58.7,65.6,60.0,55.0,97,73,39,30.07,29.99,13,5,19,0.00
2014-9-27,81.2,69.7,60.2,63.4,59.5,56.8,94,72,46,30.07,29.97,13,6,19,0.00
2014-9-28,82.3,68.9,56.1,65.4,59.2,53.8,94,73,47,30.09,29.99,8,4,15,0.00
2014-9-29,82.8,69.7,57.2,65.2,59.5,54.9,94,72,47,30.04,29.87,7,3,13,0.00
2014-9-30,70.0,64.7,61.9,63.8,61.1,56.5,97,89,77,29.91,29.70,16,5,26,2.14
2014-10-1,74.5,66.0,60.9,67.8,62.8,59.9,98,90,72,29.75,29.65,12,3,17,1.19
2014-10-2,64.3,59.3,51.0,63.9,57.2,49.3,99,93,78,29.85,29.71,17,8,28,0.05
2014-10-3,53.2,48.0,39.1,49.9,34.3,26.4,93,60,39,30.17,29.85,24,14,32,0.01
2014-10-4,55.3,45.1,34.9,35.7,30.1,26.0,77,57,34,30.11,29.84,15,7,24,0.00
2014-10-5,68.6,54.4,39.7,51.6,43.6,34.2,90,69,45,29.83,29.69,19,7,30,0.01
2014-10-6,69.9,57.6,47.8,51.6,46.2,42.4,89,68,39,29.76,29.61,16,6,25,0.00
2014-10-7,72.6,62.5,54.5,51.1,46.4,41.7,81,58,34,29.99,29.66,23,9,32,0.00
2014-10-8,68.5,57.9,44.5,46.6,41.2,36.8,77,55,34,30.12,29.98,9,4,14,0.00
2014-10-9,67.0,58.8,51.0,55.2,48.4,35.8,85,69,53,30.16,29.99,14,7,20,0.00
2014-10-10,54.0,48.6,43.3,41.6,37.8,35.3,78,67,52,30.27,30.16,11,5,15,0.00
2014-10-11,60.9,47.4,33.6,41.6,35.9,31.8,93,67,36,30.27,30.00,10,3,15,0.00
2014-10-12,60.5,51.0,41.3,52.4,46.1,36.1,97,84,70,30.00,29.68,14,7,24,0.28
2014-10-13,56.8,53.9,52.4,52.9,50.5,44.5,98,87,9,29.79,29.70,22,10,35,0.39
2014-10-14,64.9,55.5,46.0,47.9,42.7,38.2,80,64,40,30.01,29.77,24,13,34,0.00
2014-10-15,68.9,52.8,40.0,45.8,39.6,35.7,86,64,32,30.08,29.87,9,4,12,0.00
2014-10-16,75.5,58.4,45.4,55.0,43.4,38.6,82,60,32,29.87,29.71,18,6,23,0.00
2014-10-17,62.3,55.5,45.5,47.9,44.2,39.3,83,66,53,30.15,29.82,26,11,36,0.00
2014-10-18,58.9,47.4,39.4,46.0,41.1,36.0,89,80,56,30.29,30.15,10,4,16,0.00
2014-10-19,71.8,55.8,41.8,52.5,46.4,39.4,92,73,47,30.17,29.92,14,6,22,0.00
2014-10-20,69.9,57.2,47.2,50.3,45.2,39.9,89,67,34,30.09,29.94,8,3,11,0.00
2014-10-21,73.8,57.1,41.4,48.8,42.7,38.3,90,62,35,30.12,30.01,11,4,16,0.00
2014-10-22,77.3,61.3,52.9,61.2,52.4,0.0,95,74,48,30.08,29.94,16,9,28,0.64
2014-10-23,68.8,61.0,55.9,60.3,56.0,49.8,98,84,55,30.05,29.97,10,3,18,0.00
2014-10-24,73.5,62.7,54.6,63.0,56.9,49.9,97,82,61,29.98,29.86,10,4,15,0.00
2014-10-25,72.0,60.4,48.2,50.8,46.9,43.1,89,64,37,30.10,29.97,8,4,13,0.00
2014-10-26,81.3,64.5,53.4,61.3,50.4,41.6,79,61,48,29.98,29.49,18,8,26,0.00
2014-10-27,69.0,58.1,52.1,55.6,50.1,41.1,96,76,48,29.95,29.47,25,9,37,0.00
2014-10-28,57.7,49.2,39.9,41.4,33.7,29.9,75,56,37,30.19,29.95,23,10,33,0.00
2014-10-29,56.4,43.5,32.2,37.7,33.4,29.3,90,70,41,30.27,30.07,9,4,12,0.00
2014-10-30,61.0,49.0,37.8,46.0,39.2,33.8,86,70,54,30.40,29.99,25,12,32,0.00
2014-10-31,42.6,35.0,26.7,33.4,23.3,18.3,81,63,40,30.60,30.39,26,8,35,0.00
2014-11-1,51.1,38.2,26.5,25.9,22.8,20.3,79,57,31,30.51,30.17,18,9,27,0.00
2014-11-2,64.3,52.6,42.3,44.3,36.1,25.9,77,54,44,30.17,29.85,22,12,35,0.00
2014-11-3,65.5,55.2,45.1,54.6,47.8,39.6,90,76,63,30.05,29.77,18,10,28,0.11
2014-11-4,61.8,48.1,36.8,41.6,36.9,32.5,91,68,35,30.19,30.05,14,6,20,0.00
2014-11-5,65.5,51.6,42.3,45.7,38.2,33.3,82,61,42,30.17,29.97,19,9,28,0.00
2014-11-6,49.6,41.8,36.3,37.2,32.1,28.8,83,69,49,30.42,30.16,22,9,33,0.00
2014-11-7,60.8,48.9,35.6,43.6,35.2,28.8,77,61,41,30.26,29.76,28,10,38,0.00
2014-11-8,49.1,42.7,36.4,38.1,30.9,28.6,76,63,49,30.24,29.95,28,11,39,0.00
2014-11-9,59.1,48.0,40.0,43.8,37.0,30.1,80,66,49,29.95,29.56,12,5,18,0.00
2014-11-10,55.9,40.2,23.8,47.3,35.0,20.0,90,82,69,30.07,29.36,29,14,40,0.00
2014-11-11,26.1,21.6,17.6,21.1,14.6,9.4,91,74,66,30.54,30.05,26,17,35,0.05
2014-11-12,23.8,18.1,12.8,13.7,10.5,6.4,83,72,60,30.64,30.55,20,12,26,0.00
2014-11-13,26.5,20.6,13.4,16.3,12.7,7.5,81,72,57,30.68,30.57,17,9,28,0.00
2014-11-14,26.6,18.6,6.4,13.2,8.4,2.8,87,66,46,30.58,30.38,10,4,15,0.00
2014-11-15,28.1,25.4,18.3,25.2,19.2,8.9,93,78,51,30.38,30.20,18,7,25,0.11
2014-11-16,24.3,15.3,3.9,17.9,8.5,-0.6,84,74,60,30.31,30.14,18,9,27,0.00
2014-11-17,18.4,13.7,7.8,11.7,5.7,0.7,79,70,57,30.37,30.23,24,12,31,0.00
2014-11-18,34.3,19.4,6.0,24.8,11.3,0.5,80,71,56,30.35,29.92,12,6,17,0.00
2014-11-19,36.9,27.2,17.6,28.2,19.8,12.2,82,73,68,30.24,29.93,25,11,31,0.00
2014-11-20,30.2,21.3,14.6,21.0,16.0,10.8,88,80,66,30.34,30.24,8,4,11,0.00
2014-11-21,40.1,29.5,17.7,34.7,24.3,14.5,96,81,65,30.34,30.03,15,7,21,0.00
2014-11-22,57.6,46.2,35.6,54.1,43.4,34.6,97,90,70,30.04,29.56,15,8,25,0.00
2014-11-23,55.4,47.1,32.3,52.7,41.8,23.4,96,82,64,29.56,29.45,30,13,40,0.00
2014-11-24,36.5,30.4,24.7,23.4,19.3,11.0,76,64,49,30.17,29.54,26,16,38,0.00
2014-11-25,44.5,31.8,17.2,34.1,21.2,9.9,80,65,53,30.22,29.90,14,7,27,0.01
2014-11-26,39.7,31.1,20.9,35.7,27.1,17.1,91,85,77,30.53,29.87,28,15,39,0.03
2014-11-27,25.4,20.3,13.5,20.1,14.4,10.4,88,78,60,30.62,30.19,16,7,21,0.00
2014-11-28,55.2,38.2,24.2,35.9,29.3,20.3,88,72,47,30.19,29.63,13,6,22,0.00
2014-11-29,72.3,51.0,28.1,42.3,37.1,23.0,81,61,30,29.69,29.47,23,7,30,0.00
2014-11-30,27.9,18.8,12.5,23.6,7.9,1.4,85,63,48,30.66,29.69,26,16,37,0.00
2014-12-1,22.1,16.9,13.6,6.0,3.0,-0.5,66,54,40,30.83,30.50,19,7,25,0.00
2014-12-2,42.9,27.1,15.3,15.1,10.1,5.5,70,51,28,30.50,30.05,16,7,27,0.00
2014-12-3,37.1,29.9,23.5,18.9,15.9,12.9,70,56,38,30.45,30.21,12,5,15,0.00
2014-12-4,42.7,31.3,22.5,29.1,22.6,15.4,92,70,56,30.34,30.11,13,6,18,0.00
2014-12-5,44.2,36.5,30.7,40.9,35.1,28.7,98,95,87,30.41,30.10,12,4,16,0.00
2014-12-6,36.5,32.7,30.4,34.1,29.8,28.1,96,89,79,30.63,30.41,13,5,18,0.00
2014-12-7,39.4,35.2,32.2,38.7,34.4,30.7,98,97,93,30.54,30.19,15,8,22,0.00
2014-12-8,51.3,39.4,30.4,38.5,32.4,23.8,97,77,49,30.40,30.19,20,9,28,0.00
2014-12-9,32.4,26.7,20.2,26.2,22.9,17.2,92,85,77,30.53,30.39,16,5,23,0.00
2014-12-10,36.7,29.9,25.1,30.5,27.1,23.1,94,89,77,30.40,30.27,11,6,16,0.00
2014-12-11,40.1,35.5,31.7,34.9,32.1,29.3,92,88,80,30.31,30.23,11,5,15,0.00
2014-12-12,57.6,45.9,37.5,46.4,41.5,34.4,96,85,65,30.28,30.17,14,7,20,0.00
2014-12-13,54.9,50.9,47.6,51.8,49.3,46.4,97,94,88,30.17,29.91,14,8,26,0.01
2014-12-14,58.1,54.7,52.1,55.8,53.6,51.3,98,96,92,29.92,29.68,15,9,23,0.25
2014-12-15,53.6,39.0,26.4,52.8,37.5,22.5,97,94,85,30.06,29.61,30,14,40,0.51
2014-12-16,27.1,23.8,17.6,22.9,19.8,15.0,90,85,79,30.45,30.06,29,14,39,0.00
2014-12-17,27.4,23.2,17.6,22.3,17.8,14.1,90,80,71,30.45,30.33,11,4,15,0.00
2014-12-18,31.6,29.0,26.2,28.4,25.9,22.1,93,88,80,30.33,30.26,9,4,12,0.00
2014-12-19,33.6,31.6,30.2,31.2,29.8,28.4,96,93,87,30.31,30.18,11,5,15,0.00
2014-12-20,34.7,32.6,30.9,34.1,31.8,29.8,98,97,95,30.19,30.06,10,5,14,0.00
2014-12-21,42.8,39.5,34.7,42.3,38.5,34.2,98,96,93,30.06,29.66,19,10,29,0.00
2014-12-22,43.2,41.3,37.3,42.4,40.4,36.0,98,97,94,29.66,29.42,16,8,26,0.64
2014-12-23,37.3,35.1,33.7,36.0,33.9,32.7,97,96,93,29.97,29.51,22,12,29,0.17
2014-12-24,34.2,30.9,28.3,32.9,29.3,26.8,95,94,91,29.96,29.71,21,10,31,0.00
2014-12-25,48.8,37.3,28.3,36.3,31.3,27.1,95,80,59,29.78,29.62,17,6,28,0.00
2014-12-26,33.4,32.1,29.9,32.1,30.6,28.6,96,94,88,30.10,29.78,19,10,24,0.02
2014-12-27,29.8,23.0,18.5,28.5,19.3,15.6,95,86,73,30.34,30.09,16,8,23,0.00
2014-12-28,32.7,24.0,15.4,24.2,19.1,12.4,90,82,64,30.29,30.18,9,4,13,0.00
2014-12-29,24.7,18.4,4.0,22.4,15.1,-0.5,92,87,78,30.81,30.29,18,10,25,0.03
2014-12-30,7.1,2.1,-1.8,-0.6,-4.3,-6.8,81,74,59,31.03,30.81,19,9,23,0.00
2014-12-31,20.5,8.2,-2.2,10.5,1.8,-6.3,84,75,62,30.92,30.36,20,8,31,0.00
2015-1-1,34.1,21.4,9.8,23.6,15.0,4.3,89,76,64,30.35,30.14,12,6,16,0.00
2015-1-2,33.2,24.7,16.1,26.5,20.6,14.0,93,85,67,30.30,30.05,10,4,15,0.00